createdAt,value
2019-04-01T00:00:00.729Z,1019.50
2019-04-01T00:01:00.700Z,1019.47
2019-04-01T00:02:00.673Z,1019.44
2019-04-01T00:03:00.650Z,1019.43
2019-04-01T00:04:00.631Z,1019.44
2019-04-01T00:05:00.615Z,1019.43
2019-04-01T00:06:00.586Z,1019.43
2019-04-01T00:07:00.570Z,1019.42
2019-04-01T00:08:00.543Z,1019.40
2019-04-01T00:09:00.526Z,1019.38
2019-04-01T00:10:00.508Z,1019.39
2019-04-01T00:11:00.482Z,1019.41
2019-04-01T00:12:00.460Z,1019.41
2019-04-01T00:13:00.438Z,1019.39
2019-04-01T00:14:00.416Z,1019.39
2019-04-01T00:15:00.396Z,1019.30
2019-04-01T00:16:00.377Z,1019.34
2019-04-01T00:17:00.352Z,1019.36
2019-04-01T00:18:00.332Z,1019.29
2019-04-01T00:19:03.447Z,1019.35
2019-04-01T00:20:00.367Z,1019.35
2019-04-01T00:21:00.307Z,1019.35
2019-04-01T00:22:00.243Z,1019.35
2019-04-01T00:23:00.367Z,1019.36
2019-04-01T00:24:00.199Z,1019.31
2019-04-01T00:25:00.356Z,1019.29
2019-04-01T00:26:00.156Z,1019.27
2019-04-01T00:27:00.133Z,1019.27
2019-04-01T00:28:00.112Z,1019.23
2019-04-01T00:29:00.089Z,1019.28
2019-04-01T00:30:00.109Z,1019.23
2019-04-01T00:31:00.047Z,1019.26
2019-04-01T00:32:00.025Z,1019.28
2019-04-01T00:33:00.004Z,1019.25
2019-04-01T00:33:59.982Z,1019.23
2019-04-01T00:34:59.983Z,1019.28
2019-04-01T00:35:59.940Z,1019.27
2019-04-01T00:36:59.918Z,1019.26
2019-04-01T00:37:59.896Z,1019.28
2019-04-01T00:38:59.881Z,1019.26
2019-04-01T00:39:59.853Z,1019.26
2019-04-01T00:40:59.829Z,1019.29
2019-04-01T00:41:59.806Z,1019.30
2019-04-01T00:42:59.786Z,1019.32
2019-04-01T00:43:59.764Z,1019.28
2019-04-01T00:44:59.742Z,1019.26
2019-04-01T00:45:59.722Z,1019.25
2019-04-01T00:46:59.699Z,1019.25
2019-04-01T00:47:59.677Z,1019.27
2019-04-01T00:48:59.655Z,1019.25
2019-04-01T00:49:59.634Z,1019.24
2019-04-01T00:50:59.623Z,1019.23
2019-04-01T00:51:59.590Z,1019.18
2019-04-01T00:52:59.568Z,1019.16
2019-04-01T00:53:59.544Z,1019.16
2019-04-01T00:54:59.527Z,1019.15
2019-04-01T00:55:59.503Z,1019.15
2019-04-01T00:56:59.481Z,1019.16
2019-04-01T00:57:59.458Z,1019.13
2019-04-01T00:58:59.439Z,1019.14
2019-04-01T00:59:59.418Z,1019.14
2019-04-01T01:00:59.395Z,1019.13
2019-04-01T01:01:59.379Z,1019.15
2019-04-01T01:02:59.349Z,1019.12
2019-04-01T01:03:59.332Z,1019.11
2019-04-01T01:04:59.310Z,1019.09
2019-04-01T01:05:59.283Z,1019.08
2019-04-01T01:06:59.266Z,1019.06
2019-04-01T01:07:59.251Z,1019.04
2019-04-01T01:08:59.221Z,1019.06
2019-04-01T01:09:59.198Z,1019.02
2019-04-01T01:10:59.178Z,1019.06
2019-04-01T01:11:59.159Z,1019.04
2019-04-01T01:12:59.134Z,1019.03
2019-04-01T01:13:59.110Z,1019.05
2019-04-01T01:14:59.104Z,1019.03
2019-04-01T01:15:59.076Z,1019.01
2019-04-01T01:16:59.050Z,1018.96
2019-04-01T01:17:59.021Z,1018.95
2019-04-01T01:18:59.004Z,1018.94
2019-04-01T01:19:58.980Z,1018.92
2019-04-01T01:20:58.959Z,1018.94
2019-04-01T01:21:58.945Z,1018.92
2019-04-01T01:22:58.913Z,1018.93
2019-04-01T01:23:58.891Z,1018.93
2019-04-01T01:24:58.871Z,1018.93
2019-04-01T01:25:58.848Z,1018.87
2019-04-01T01:26:58.831Z,1018.90
2019-04-01T01:27:58.804Z,1018.87
2019-04-01T01:28:58.792Z,1018.87
2019-04-01T01:29:58.766Z,1018.87
2019-04-01T01:30:58.739Z,1018.84
2019-04-01T01:31:58.721Z,1018.87
2019-04-01T01:32:58.699Z,1018.84
2019-04-01T01:33:58.673Z,1018.84
2019-04-01T01:34:58.652Z,1018.82
2019-04-01T01:35:58.635Z,1018.83
2019-04-01T01:36:58.610Z,1018.81
2019-04-01T01:37:58.585Z,1018.80
2019-04-01T01:38:58.561Z,1018.82
2019-04-01T01:39:58.543Z,1018.81
2019-04-01T01:40:58.607Z,1018.78
2019-04-01T01:41:58.497Z,1018.78
2019-04-01T01:42:58.475Z,1018.75
2019-04-01T01:43:58.453Z,1018.73
2019-04-01T01:44:58.480Z,1018.71
2019-04-01T01:45:58.417Z,1018.71
2019-04-01T01:46:58.391Z,1018.69
2019-04-01T01:47:58.371Z,1018.74
2019-04-01T01:48:58.353Z,1018.73
2019-04-01T01:49:58.322Z,1018.71
2019-04-01T01:50:58.302Z,1018.70
2019-04-01T01:51:58.277Z,1018.67
2019-04-01T01:52:58.259Z,1018.67
2019-04-01T01:53:58.237Z,1018.63
2019-04-01T01:54:58.213Z,1018.68
2019-04-01T01:55:58.193Z,1018.65
2019-04-01T01:56:58.174Z,1018.68
2019-04-01T01:57:58.150Z,1018.65
2019-04-01T01:58:58.129Z,1018.64
2019-04-01T01:59:58.104Z,1018.68
2019-04-01T02:00:58.084Z,1018.68
2019-04-01T02:01:58.061Z,1018.70
2019-04-01T02:02:58.042Z,1018.66
2019-04-01T02:03:58.119Z,1018.67
2019-04-01T02:04:57.999Z,1018.66
2019-04-01T02:05:57.983Z,1018.66
2019-04-01T02:06:57.954Z,1018.68
2019-04-01T02:07:57.930Z,1018.65
2019-04-01T02:08:57.912Z,1018.66
2019-04-01T02:09:57.884Z,1018.68
2019-04-01T02:10:57.863Z,1018.63
2019-04-01T02:11:57.848Z,1018.64
2019-04-01T02:12:57.818Z,1018.63
2019-04-01T02:13:57.801Z,1018.66
2019-04-01T02:14:57.774Z,1018.64
2019-04-01T02:15:57.751Z,1018.61
2019-04-01T02:16:57.731Z,1018.64
2019-04-01T02:17:57.711Z,1018.63
2019-04-01T02:18:57.686Z,1018.62
2019-04-01T02:19:57.668Z,1018.64
2019-04-01T02:20:57.642Z,1018.62
2019-04-01T02:21:57.620Z,1018.62
2019-04-01T02:22:57.601Z,1018.63
2019-04-01T02:23:57.579Z,1018.60
2019-04-01T02:24:57.557Z,1018.57
2019-04-01T02:25:57.545Z,1018.57
2019-04-01T02:26:57.516Z,1018.57
2019-04-01T02:27:57.490Z,1018.57
2019-04-01T02:28:57.476Z,1018.56
2019-04-01T02:29:57.446Z,1018.61
2019-04-01T02:30:57.422Z,1018.59
2019-04-01T02:31:57.403Z,1018.57
2019-04-01T02:32:57.379Z,1018.57
2019-04-01T02:33:57.358Z,1018.60
2019-04-01T02:34:57.342Z,1018.61
2019-04-01T02:35:57.313Z,1018.60
2019-04-01T02:36:57.295Z,1018.61
2019-04-01T02:37:57.270Z,1018.57
2019-04-01T02:38:57.250Z,1018.57
2019-04-01T02:39:57.224Z,1018.58
2019-04-01T02:40:57.216Z,1018.55
2019-04-01T02:41:57.183Z,1018.57
2019-04-01T02:42:57.172Z,1018.57
2019-04-01T02:43:57.139Z,1018.54
2019-04-01T02:44:57.118Z,1018.55
2019-04-01T02:45:57.094Z,1018.55
2019-04-01T02:46:57.072Z,1018.56
2019-04-01T02:47:57.054Z,1018.53
2019-04-01T02:48:57.028Z,1018.52
2019-04-01T02:49:57.012Z,1018.54
2019-04-01T02:50:56.985Z,1018.50
2019-04-01T02:51:56.959Z,1018.51
2019-04-01T02:52:56.947Z,1018.50
2019-04-01T02:53:56.929Z,1018.51
2019-04-01T02:54:56.897Z,1018.48
2019-04-01T02:55:56.881Z,1018.47
2019-04-01T02:56:56.854Z,1018.44
2019-04-01T02:57:56.844Z,1018.43
2019-04-01T02:58:56.807Z,1018.46
2019-04-01T02:59:56.807Z,1018.47
2019-04-01T03:00:56.882Z,1018.44
2019-04-01T03:01:56.761Z,1018.44
2019-04-01T03:02:56.721Z,1018.47
2019-04-01T03:03:56.735Z,1018.43
2019-04-01T03:04:56.682Z,1018.39
2019-04-01T03:05:56.663Z,1018.39
2019-04-01T03:06:56.647Z,1018.41
2019-04-01T03:07:56.606Z,1018.43
2019-04-01T03:08:56.590Z,1018.41
2019-04-01T03:09:56.573Z,1018.40
2019-04-01T03:10:56.545Z,1018.40
2019-04-01T03:11:56.544Z,1018.39
2019-04-01T03:12:56.498Z,1018.39
2019-04-01T03:13:56.474Z,1018.41
2019-04-01T03:14:56.453Z,1018.40
2019-04-01T03:15:56.432Z,1018.36
2019-04-01T03:16:56.409Z,1018.35
2019-04-01T03:17:56.386Z,1018.34
2019-04-01T03:18:56.366Z,1018.32
2019-04-01T03:19:56.344Z,1018.28
2019-04-01T03:20:56.320Z,1018.35
2019-04-01T03:21:56.293Z,1018.33
2019-04-01T03:22:56.277Z,1018.33
2019-04-01T03:23:56.250Z,1018.35
2019-04-01T03:24:56.229Z,1018.32
2019-04-01T03:25:56.206Z,1018.30
2019-04-01T03:26:56.191Z,1018.30
2019-04-01T03:27:56.178Z,1018.30
2019-04-01T03:28:56.160Z,1018.30
2019-04-01T03:29:56.123Z,1018.31
2019-04-01T03:30:56.100Z,1018.30
2019-04-01T03:31:56.081Z,1018.31
2019-04-01T03:32:56.051Z,1018.26
2019-04-01T03:33:56.202Z,1018.30
2019-04-01T03:34:56.044Z,1018.31
2019-04-01T03:35:55.993Z,1018.32
2019-04-01T03:36:55.963Z,1018.27
2019-04-01T03:37:55.941Z,1018.27
2019-04-01T03:38:55.920Z,1018.27
2019-04-01T03:39:55.893Z,1018.24
2019-04-01T03:40:55.876Z,1018.24
2019-04-01T03:41:55.857Z,1018.25
2019-04-01T03:42:55.848Z,1018.27
2019-04-01T03:43:55.806Z,1018.28
2019-04-01T03:44:55.788Z,1018.26
2019-04-01T03:45:55.763Z,1018.24
2019-04-01T03:46:55.740Z,1018.28
2019-04-01T03:47:55.719Z,1018.28
2019-04-01T03:48:55.711Z,1018.27
2019-04-01T03:49:55.674Z,1018.25
2019-04-01T03:50:55.654Z,1018.24
2019-04-01T03:51:55.652Z,1018.24
2019-04-01T03:52:55.607Z,1018.23
2019-04-01T03:53:55.591Z,1018.25
2019-04-01T03:54:55.563Z,1018.20
2019-04-01T03:55:55.541Z,1018.24
2019-04-01T03:56:55.629Z,1018.22
2019-04-01T03:57:55.496Z,1018.16
2019-04-01T03:58:55.483Z,1018.21
2019-04-01T03:59:55.454Z,1018.18
2019-04-01T04:00:55.429Z,1018.20
2019-04-01T04:01:55.409Z,1018.19
2019-04-01T04:02:55.386Z,1018.20
2019-04-01T04:03:55.360Z,1018.20
2019-04-01T04:04:55.337Z,1018.17
2019-04-01T04:05:55.318Z,1018.21
2019-04-01T04:06:55.291Z,1018.16
2019-04-01T04:07:55.279Z,1018.12
2019-04-01T04:08:55.259Z,1018.14
2019-04-01T04:09:55.236Z,1018.15
2019-04-01T04:10:55.218Z,1018.16
2019-04-01T04:11:55.191Z,1018.12
2019-04-01T04:12:55.160Z,1018.13
2019-04-01T04:13:55.137Z,1018.11
2019-04-01T04:14:55.124Z,1018.12
2019-04-01T04:15:55.094Z,1018.10
2019-04-01T04:16:55.075Z,1018.10
2019-04-01T04:17:55.052Z,1018.11
2019-04-01T04:18:55.025Z,1018.12
2019-04-01T04:19:55.016Z,1018.13
2019-04-01T04:20:54.980Z,1018.16
2019-04-01T04:21:54.973Z,1018.14
2019-04-01T04:22:54.935Z,1018.14
2019-04-01T04:23:54.913Z,1018.18
2019-04-01T04:24:54.891Z,1018.16
2019-04-01T04:25:54.876Z,1018.15
2019-04-01T04:26:54.848Z,1018.17
2019-04-01T04:27:54.826Z,1018.20
2019-04-01T04:28:54.806Z,1018.17
2019-04-01T04:29:54.779Z,1018.22
2019-04-01T04:30:54.774Z,1018.22
2019-04-01T04:31:54.740Z,1018.22
2019-04-01T04:32:54.718Z,1018.24
2019-04-01T04:33:54.691Z,1018.19
2019-04-01T04:34:57.271Z,1018.19
2019-04-01T04:35:54.645Z,1018.25
2019-04-01T04:36:54.625Z,1018.22
2019-04-01T04:37:54.610Z,1018.23
2019-04-01T04:38:54.579Z,1018.24
2019-04-01T04:39:54.559Z,1018.23
2019-04-01T04:40:54.537Z,1018.27
2019-04-01T04:41:54.513Z,1018.27
2019-04-01T04:42:54.498Z,1018.26
2019-04-01T04:43:54.466Z,1018.24
2019-04-01T04:44:54.445Z,1018.25
2019-04-01T04:45:54.422Z,1018.25
2019-04-01T04:46:54.412Z,1018.21
2019-04-01T04:47:54.386Z,1018.24
2019-04-01T04:48:54.363Z,1018.18
2019-04-01T04:49:54.329Z,1018.20
2019-04-01T04:50:54.310Z,1018.19
2019-04-01T04:51:54.290Z,1018.22
2019-04-01T04:52:54.267Z,1018.22
2019-04-01T04:53:54.242Z,1018.23
2019-04-01T04:54:54.219Z,1018.22
2019-04-01T04:55:54.196Z,1018.17
2019-04-01T04:56:54.177Z,1018.22
2019-04-01T04:57:54.148Z,1018.22
2019-04-01T04:58:54.137Z,1018.24
2019-04-01T04:59:54.107Z,1018.23
2019-04-01T05:00:54.094Z,1018.27
2019-04-01T05:01:54.060Z,1018.22
2019-04-01T05:02:54.039Z,1018.26
2019-04-01T05:03:54.019Z,1018.25
2019-04-01T05:04:53.995Z,1018.24
2019-04-01T05:05:53.969Z,1018.23
2019-04-01T05:06:53.953Z,1018.27
2019-04-01T05:07:53.926Z,1018.21
2019-04-01T05:08:53.913Z,1018.25
2019-04-01T05:09:53.879Z,1018.27
2019-04-01T05:10:53.866Z,1018.23
2019-04-01T05:11:53.837Z,1018.27
2019-04-01T05:12:53.819Z,1018.26
2019-04-01T05:13:53.795Z,1018.25
2019-04-01T05:14:53.773Z,1018.25
2019-04-01T05:15:53.745Z,1018.20
2019-04-01T05:16:53.728Z,1018.26
2019-04-01T05:17:53.703Z,1018.23
2019-04-01T05:18:53.679Z,1018.23
2019-04-01T05:19:53.657Z,1018.21
2019-04-01T05:20:53.632Z,1018.23
2019-04-01T05:21:53.610Z,1018.24
2019-04-01T05:22:53.591Z,1018.24
2019-04-01T05:23:53.569Z,1018.25
2019-04-01T05:24:53.544Z,1018.25
2019-04-01T05:25:53.521Z,1018.24
2019-04-01T05:26:53.504Z,1018.23
2019-04-01T05:27:53.477Z,1018.26
2019-04-01T05:28:53.454Z,1018.23
2019-04-01T05:29:53.435Z,1018.25
2019-04-01T05:30:53.413Z,1018.25
2019-04-01T05:31:53.391Z,1018.26
2019-04-01T05:32:53.371Z,1018.23
2019-04-01T05:33:55.654Z,1018.29
2019-04-01T05:34:53.323Z,1018.29
2019-04-01T05:35:53.300Z,1018.26
2019-04-01T05:36:53.280Z,1018.26
2019-04-01T05:37:53.257Z,1018.28
2019-04-01T05:38:53.230Z,1018.29
2019-04-01T05:39:53.215Z,1018.30
2019-04-01T05:40:53.187Z,1018.33
2019-04-01T05:41:53.166Z,1018.36
2019-04-01T05:42:53.144Z,1018.34
2019-04-01T05:43:53.120Z,1018.35
2019-04-01T05:44:53.098Z,1018.34
2019-04-01T05:45:53.076Z,1018.32
2019-04-01T05:46:53.058Z,1018.34
2019-04-01T05:47:53.037Z,1018.37
2019-04-01T05:48:53.012Z,1018.35
2019-04-01T05:49:52.983Z,1018.34
2019-04-01T05:50:52.958Z,1018.36
2019-04-01T05:51:52.943Z,1018.35
2019-04-01T05:52:52.914Z,1018.38
2019-04-01T05:53:52.895Z,1018.35
2019-04-01T05:54:52.871Z,1018.41
2019-04-01T05:55:52.849Z,1018.35
2019-04-01T05:56:52.838Z,1018.39
2019-04-01T05:57:52.806Z,1018.41
2019-04-01T05:58:52.785Z,1018.39
2019-04-01T05:59:52.767Z,1018.43
2019-04-01T06:00:52.738Z,1018.43
2019-04-01T06:01:52.718Z,1018.40
2019-04-01T06:02:52.693Z,1018.40
2019-04-01T06:03:52.676Z,1018.42
2019-04-01T06:04:52.655Z,1018.45
2019-04-01T06:05:52.627Z,1018.44
2019-04-01T06:06:52.605Z,1018.46
2019-04-01T06:07:52.581Z,1018.43
2019-04-01T06:08:52.562Z,1018.45
2019-04-01T06:09:52.538Z,1018.46
2019-04-01T06:10:52.516Z,1018.47
2019-04-01T06:11:52.501Z,1018.53
2019-04-01T06:12:52.482Z,1018.52
2019-04-01T06:13:52.462Z,1018.49
2019-04-01T06:14:52.429Z,1018.50
2019-04-01T06:15:52.410Z,1018.49
2019-04-01T06:16:52.387Z,1018.51
2019-04-01T06:17:52.370Z,1018.51
2019-04-01T06:18:52.350Z,1018.47
2019-04-01T06:19:52.320Z,1018.51
2019-04-01T06:20:52.298Z,1018.48
2019-04-01T06:21:52.279Z,1018.49
2019-04-01T06:22:52.264Z,1018.51
2019-04-01T06:23:52.236Z,1018.52
2019-04-01T06:24:52.210Z,1018.51
2019-04-01T06:25:52.189Z,1018.53
2019-04-01T06:26:52.250Z,1018.52
2019-04-01T06:27:52.146Z,1018.49
2019-04-01T06:28:52.125Z,1018.44
2019-04-01T06:29:52.107Z,1018.49
2019-04-01T06:30:52.079Z,1018.51
2019-04-01T06:31:52.087Z,1018.47
2019-04-01T06:32:52.041Z,1018.54
2019-04-01T06:33:52.018Z,1018.54
2019-04-01T06:34:52.948Z,1018.55
2019-04-01T06:35:51.971Z,1018.54
2019-04-01T06:36:51.949Z,1018.57
2019-04-01T06:37:51.934Z,1018.53
2019-04-01T06:38:51.907Z,1018.56
2019-04-01T06:39:51.884Z,1018.54
2019-04-01T06:40:51.869Z,1018.53
2019-04-01T06:41:51.844Z,1018.52
2019-04-01T06:42:51.822Z,1018.53
2019-04-01T06:43:51.800Z,1018.54
2019-04-01T06:44:51.781Z,1018.53
2019-04-01T06:45:51.757Z,1018.54
2019-04-01T06:46:51.737Z,1018.59
2019-04-01T06:47:51.722Z,1018.55
2019-04-01T06:48:51.693Z,1018.55
2019-04-01T06:49:51.671Z,1018.55
2019-04-01T06:50:51.655Z,1018.57
2019-04-01T06:51:51.633Z,1018.60
2019-04-01T06:52:51.641Z,1018.61
2019-04-01T06:53:51.590Z,1018.57
2019-04-01T06:54:51.566Z,1018.58
2019-04-01T06:55:51.545Z,1018.54
2019-04-01T06:56:51.523Z,1018.52
2019-04-01T06:57:51.501Z,1018.52
2019-04-01T06:58:51.480Z,1018.54
2019-04-01T06:59:51.462Z,1018.49
2019-04-01T07:00:51.442Z,1018.56
2019-04-01T07:01:51.419Z,1018.55
2019-04-01T07:02:51.400Z,1018.59
2019-04-01T07:03:51.377Z,1018.55
2019-04-01T07:04:51.360Z,1018.75
2019-04-01T07:05:51.339Z,1018.90
2019-04-01T07:06:51.320Z,1018.96
2019-04-01T07:07:51.305Z,1019.03
2019-04-01T07:08:51.291Z,1019.05
2019-04-01T07:09:51.268Z,1019.07
2019-04-01T07:10:51.252Z,1019.11
2019-04-01T07:11:51.243Z,1019.11
2019-04-01T07:12:51.223Z,1019.11
2019-04-01T07:13:51.207Z,1019.15
2019-04-01T07:14:51.196Z,1019.17
2019-04-01T07:15:51.178Z,1019.22
2019-04-01T07:16:51.170Z,1019.16
2019-04-01T07:17:51.162Z,1019.17
2019-04-01T07:18:51.146Z,1019.23
2019-04-01T07:19:51.131Z,1019.24
2019-04-01T07:20:51.122Z,1019.25
2019-04-01T07:21:54.333Z,1019.27
2019-04-01T07:22:51.101Z,1019.26
2019-04-01T07:23:51.087Z,1019.18
2019-04-01T07:24:51.081Z,1019.30
2019-04-01T07:25:51.067Z,1019.24
2019-04-01T07:26:51.064Z,1019.25
2019-04-01T07:27:51.049Z,1019.25
2019-04-01T07:28:51.049Z,1019.25
2019-04-01T07:29:51.032Z,1019.30
2019-04-01T07:30:51.032Z,1019.33
2019-04-01T07:31:51.018Z,1019.34
2019-04-01T07:32:51.013Z,1019.30
2019-04-01T07:33:51.010Z,1019.30
2019-04-01T07:34:50.996Z,1019.28
2019-04-01T07:35:50.999Z,1019.31
2019-04-01T07:36:50.995Z,1019.26
2019-04-01T07:37:50.974Z,1019.27
2019-04-01T07:38:50.974Z,1019.28
2019-04-01T07:39:50.969Z,1019.30
2019-04-01T07:40:50.959Z,1019.30
2019-04-01T07:41:51.044Z,1019.31
2019-04-01T07:42:50.945Z,1019.31
2019-04-01T07:43:50.939Z,1019.33
2019-04-01T07:44:50.939Z,1019.30
2019-04-01T07:45:50.930Z,1019.28
2019-04-01T07:46:50.927Z,1019.34
2019-04-01T07:47:51.794Z,1019.36
2019-04-01T07:48:50.916Z,1019.42
2019-04-01T07:49:50.982Z,1019.41
2019-04-01T07:50:50.905Z,1019.54
2019-04-01T07:51:50.904Z,1019.38
2019-04-01T07:52:50.902Z,1019.41
2019-04-01T07:53:50.900Z,1019.50
2019-04-01T07:54:50.885Z,1019.44
2019-04-01T07:55:50.893Z,1019.44
2019-04-01T07:56:50.880Z,1019.46
2019-04-01T07:57:50.881Z,1019.47
2019-04-01T07:58:50.871Z,1019.51
2019-04-01T07:59:50.871Z,1019.44
2019-04-01T08:00:50.863Z,1019.45
2019-04-01T08:01:52.830Z,1019.51
2019-04-01T08:02:50.859Z,1019.43
2019-04-01T08:03:50.867Z,1019.52
2019-04-01T08:04:50.859Z,1019.50
2019-04-01T08:05:50.850Z,1019.48
2019-04-01T08:06:50.847Z,1019.51
2019-04-01T08:07:50.843Z,1019.53
2019-04-01T08:08:50.846Z,1019.44
2019-04-01T08:09:50.841Z,1019.51
2019-04-01T08:10:50.840Z,1019.53
2019-04-01T08:11:50.829Z,1019.59
2019-04-01T08:12:50.834Z,1019.56
2019-04-01T08:13:50.826Z,1019.59
2019-04-01T08:14:50.831Z,1019.59
2019-04-01T08:15:50.831Z,1019.57
2019-04-01T08:16:50.820Z,1019.53
2019-04-01T08:17:50.819Z,1019.53
2019-04-01T08:18:50.820Z,1019.53
2019-04-01T08:19:50.821Z,1019.56
2019-04-01T08:20:50.820Z,1019.57
2019-04-01T08:21:52.490Z,1019.56
2019-04-01T08:22:50.808Z,1019.56
2019-04-01T08:23:50.812Z,1019.55
2019-04-01T08:24:50.813Z,1019.60
2019-04-01T08:25:50.803Z,1019.68
2019-04-01T08:26:50.810Z,1019.60
2019-04-01T08:27:50.800Z,1019.61
2019-04-01T08:28:50.802Z,1019.49
2019-04-01T08:29:50.794Z,1019.50
2019-04-01T08:30:50.790Z,1019.52
2019-04-01T08:31:50.788Z,1019.53
2019-04-01T08:32:50.786Z,1019.54
2019-04-01T08:33:50.784Z,1019.56
2019-04-01T08:34:50.783Z,1019.47
2019-04-01T08:35:50.783Z,1019.55
2019-04-01T08:36:50.776Z,1019.55
2019-04-01T08:37:50.782Z,1019.51
2019-04-01T08:38:50.770Z,1019.54
2019-04-01T08:39:50.770Z,1019.48
2019-04-01T08:40:50.769Z,1019.50
2019-04-01T08:41:50.767Z,1019.51
2019-04-01T08:42:50.768Z,1019.50
2019-04-01T08:43:50.765Z,1019.51
2019-04-01T08:44:50.760Z,1019.46
2019-04-01T08:45:50.759Z,1019.51
2019-04-01T08:46:50.757Z,1019.52
2019-04-01T08:47:50.758Z,1019.53
2019-04-01T08:48:50.754Z,1019.48
2019-04-01T08:49:50.757Z,1019.53
2019-04-01T08:50:50.760Z,1019.52
2019-04-01T08:51:50.755Z,1019.54
2019-04-01T08:52:50.750Z,1019.60
2019-04-01T08:53:50.744Z,1019.49
2019-04-01T08:54:52.378Z,1019.49
2019-04-01T08:55:50.745Z,1019.48
2019-04-01T08:56:50.738Z,1019.45
2019-04-01T08:57:50.736Z,1019.44
2019-04-01T08:58:50.738Z,1019.42
2019-04-01T08:59:50.739Z,1019.43
2019-04-01T09:00:50.740Z,1019.46
2019-04-01T09:01:50.725Z,1019.41
2019-04-01T09:02:50.725Z,1019.45
2019-04-01T09:03:50.728Z,1019.39
2019-04-01T09:04:50.723Z,1019.40
2019-04-01T09:05:50.818Z,1019.42
2019-04-01T09:06:50.713Z,1019.44
2019-04-01T09:07:50.707Z,1019.42
2019-04-01T09:08:50.713Z,1019.42
2019-04-01T09:09:50.709Z,1019.48
2019-04-01T09:10:50.707Z,1019.38
2019-04-01T09:11:50.696Z,1019.48
2019-04-01T09:12:50.772Z,1019.46
2019-04-01T09:13:50.694Z,1019.44
2019-04-01T09:14:50.684Z,1019.40
2019-04-01T09:15:50.682Z,1019.37
2019-04-01T09:16:50.689Z,1019.35
2019-04-01T09:17:50.672Z,1019.37
2019-04-01T09:18:50.671Z,1019.38
2019-04-01T09:19:50.667Z,1019.26
2019-04-01T09:20:50.663Z,1019.26
2019-04-01T09:21:50.657Z,1019.25
2019-04-01T09:22:50.649Z,1019.13
2019-04-01T09:23:52.299Z,1019.05
2019-04-01T09:24:50.639Z,1019.06
2019-04-01T09:25:50.633Z,1019.02
2019-04-01T09:26:50.623Z,1019.10
2019-04-01T09:27:50.616Z,1019.02
2019-04-01T09:28:50.617Z,1019.00
2019-04-01T09:29:50.605Z,1018.99
2019-04-01T09:30:50.601Z,1018.97
2019-04-01T09:31:50.594Z,1018.99
2019-04-01T09:32:50.588Z,1018.88
2019-04-01T09:33:50.588Z,1018.85
2019-04-01T09:34:50.579Z,1018.80
2019-04-01T09:35:50.569Z,1018.80
2019-04-01T09:36:50.562Z,1018.68
2019-04-01T09:37:50.552Z,1018.43
2019-04-01T09:38:50.557Z,1018.26
2019-04-01T09:39:50.550Z,1018.26
2019-04-01T09:40:50.540Z,1018.17
2019-04-01T09:41:50.581Z,1018.16
2019-04-01T09:42:50.520Z,1018.09
2019-04-01T09:43:50.513Z,1018.01
2019-04-01T09:44:50.508Z,1018.08
2019-04-01T09:45:50.497Z,1018.02
2019-04-01T09:46:50.488Z,1018.02
2019-04-01T09:47:50.479Z,1017.98
2019-04-01T09:48:50.479Z,1017.97
2019-04-01T09:49:50.482Z,1017.96
2019-04-01T09:50:50.471Z,1017.93
2019-04-01T09:51:50.454Z,1017.90
2019-04-01T09:52:50.446Z,1017.90
2019-04-01T09:53:50.432Z,1017.84
2019-04-01T09:54:50.425Z,1017.87
2019-04-01T09:55:50.418Z,1017.90
2019-04-01T09:56:50.407Z,1017.82
2019-04-01T09:57:50.398Z,1017.81
2019-04-01T09:58:50.390Z,1017.84
2019-04-01T09:59:50.381Z,1017.83
2019-04-01T10:00:53.272Z,1017.80
2019-04-01T10:01:50.359Z,1017.81
2019-04-01T10:02:50.363Z,1017.69
2019-04-01T10:03:50.343Z,1017.67
2019-04-01T10:04:50.333Z,1017.74
2019-04-01T10:05:50.323Z,1017.62
2019-04-01T10:06:50.314Z,1017.67
2019-04-01T10:07:50.483Z,1017.61
2019-04-01T10:08:50.293Z,1017.60
2019-04-01T10:09:50.283Z,1017.52
2019-04-01T10:10:50.272Z,1017.48
2019-04-01T10:11:50.264Z,1017.56
2019-04-01T10:12:50.256Z,1017.55
2019-04-01T10:13:50.244Z,1017.52
2019-04-01T10:14:50.242Z,1017.51
2019-04-01T10:15:50.219Z,1017.45
2019-04-01T10:16:50.208Z,1017.41
2019-04-01T10:17:50.203Z,1017.41
2019-04-01T10:18:50.189Z,1017.35
2019-04-01T10:19:50.177Z,1017.34
2019-04-01T10:20:50.174Z,1017.31
2019-04-01T10:21:50.153Z,1017.38
2019-04-01T10:22:50.141Z,1017.32
2019-04-01T10:23:50.133Z,1017.30
2019-04-01T10:24:50.124Z,1017.27
2019-04-01T10:25:51.441Z,1017.29
2019-04-01T10:26:50.113Z,1017.24
2019-04-01T10:27:50.094Z,1017.25
2019-04-01T10:28:50.079Z,1017.22
2019-04-01T10:29:50.067Z,1017.21
2019-04-01T10:30:50.069Z,1017.17
2019-04-01T10:31:50.044Z,1017.12
2019-04-01T10:32:50.034Z,1017.07
2019-04-01T10:33:50.024Z,1017.14
2019-04-01T10:34:50.027Z,1017.13
2019-04-01T10:35:50.001Z,1017.06
2019-04-01T10:36:50.005Z,1017.08
2019-04-01T10:37:49.976Z,1017.08
2019-04-01T10:38:49.967Z,1017.04
2019-04-01T10:39:49.963Z,1016.99
2019-04-01T10:40:49.945Z,1016.95
2019-04-01T10:41:49.931Z,1017.02
2019-04-01T10:42:49.926Z,1016.96
2019-04-01T10:43:49.909Z,1016.95
2019-04-01T10:44:49.897Z,1016.94
2019-04-01T10:45:49.884Z,1016.96
2019-04-01T10:46:49.942Z,1016.85
2019-04-01T10:47:49.898Z,1016.94
2019-04-01T10:48:49.907Z,1016.90
2019-04-01T10:49:49.906Z,1016.88
2019-04-01T10:50:49.881Z,1016.91
2019-04-01T10:51:49.818Z,1016.86
2019-04-01T10:52:49.825Z,1016.84
2019-04-01T10:53:49.881Z,1016.84
2019-04-01T10:54:49.786Z,1016.81
2019-04-01T10:55:49.810Z,1016.81
2019-04-01T10:56:49.777Z,1016.79
2019-04-01T10:57:53.574Z,1016.76
2019-04-01T10:58:49.768Z,1016.75
2019-04-01T10:59:49.795Z,1016.75
2019-04-01T11:00:49.802Z,1016.77
2019-04-01T11:01:49.723Z,1016.77
2019-04-01T11:02:50.368Z,1016.72
2019-04-01T11:03:49.687Z,1016.71
2019-04-01T11:04:49.688Z,1016.72
2019-04-01T11:05:49.735Z,1016.71
2019-04-01T11:06:49.739Z,1016.70
2019-04-01T11:07:49.699Z,1016.71
2019-04-01T11:08:49.662Z,1016.65
2019-04-01T11:09:49.613Z,1016.60
2019-04-01T11:10:49.598Z,1016.60
2019-04-01T11:11:49.591Z,1016.71
2019-04-01T11:12:49.577Z,1016.68
2019-04-01T11:13:51.720Z,1016.67
2019-04-01T11:14:49.556Z,1016.62
2019-04-01T11:15:49.569Z,1016.67
2019-04-01T11:16:49.530Z,1016.62
2019-04-01T11:17:52.269Z,1016.57
2019-04-01T11:18:49.515Z,1016.54
2019-04-01T11:19:49.501Z,1016.54
2019-04-01T11:20:49.483Z,1016.56
2019-04-01T11:21:49.480Z,1016.58
2019-04-01T11:22:49.468Z,1016.58
2019-04-01T11:23:49.461Z,1016.57
2019-04-01T11:24:49.440Z,1016.53
2019-04-01T11:25:49.423Z,1016.50
2019-04-01T11:26:49.418Z,1016.56
2019-04-01T11:27:49.418Z,1016.53
2019-04-01T11:28:49.394Z,1016.55
2019-04-01T11:29:49.375Z,1016.49
2019-04-01T11:30:49.376Z,1016.49
2019-04-01T11:31:49.381Z,1016.40
2019-04-01T11:32:49.386Z,1016.39
2019-04-01T11:33:49.351Z,1016.36
2019-04-01T11:34:49.359Z,1016.40
2019-04-01T11:35:49.315Z,1016.45
2019-04-01T11:36:49.431Z,1016.39
2019-04-01T11:37:49.295Z,1016.36
2019-04-01T11:38:49.276Z,1016.35
2019-04-01T11:39:49.315Z,1016.35
2019-04-01T11:40:49.293Z,1016.30
2019-04-01T11:41:49.254Z,1016.33
2019-04-01T11:42:49.216Z,1016.36
2019-04-01T11:43:49.232Z,1016.32
2019-04-01T11:44:49.232Z,1016.29
2019-04-01T11:45:49.222Z,1016.26
2019-04-01T11:46:49.191Z,1016.22
2019-04-01T11:47:49.199Z,1016.25
2019-04-01T11:48:49.147Z,1016.16
2019-04-01T11:49:49.165Z,1016.15
2019-04-01T11:50:49.135Z,1016.15
2019-04-01T11:51:49.153Z,1016.05
2019-04-01T11:52:49.112Z,1016.08
2019-04-01T11:53:49.080Z,1016.03
2019-04-01T11:54:49.075Z,1015.96
2019-04-01T11:55:49.059Z,1016.07
2019-04-01T11:56:49.053Z,1016.06
2019-04-01T11:57:49.033Z,1016.06
2019-04-01T11:58:49.018Z,1016.03
2019-04-01T11:59:49.007Z,1016.05
2019-04-01T12:00:49.010Z,1015.99
2019-04-01T12:01:48.983Z,1016.01
2019-04-01T12:02:48.967Z,1015.97
2019-04-01T12:03:48.960Z,1015.95
2019-04-01T12:04:48.946Z,1015.97